Time;durP1;ratioP1;P1;durP2;ratioP2;P2;SDS_P1;SDS_P2;PMS_P1;PMS_P2;Temp;Humidity;BMP_temperature;BMP_pressure;BME280_temperature;BME280_humidity;BME280_pressure;Samples;Min_cycle;Max_cycle;Signal;HPM_P1;HPM_P2
2021/11/24 00:02:17;;;;;;;;;35.25;26.00;;;;;12.03;100.00;102157.97;5057905;28;45322;-76
2021/11/24 00:04:43;;;;;;;;;24.75;21.25;;;;;12.00;100.00;102160.78;5060372;28;46101;-76
2021/11/24 00:07:08;;;;;;;;;23.75;20.00;;;;;12.03;100.00;102159.75;5058001;28;45441;-76
2021/11/24 00:09:33;;;;;;;;;32.75;27.75;;;;;12.03;100.00;102151.81;5044641;28;46098;-76
2021/11/24 00:11:59;;;;;;;;;32.50;25.75;;;;;12.06;100.00;102144.56;5059825;28;45505;-76
2021/11/24 00:14:24;;;;;;;;;35.75;28.75;;;;;12.06;100.00;102138.44;5073019;28;47978;-76
2021/11/24 00:16:50;;;;;;;;;33.00;24.00;;;;;11.98;100.00;102141.47;5046383;28;45474;-75
2021/11/24 00:19:15;;;;;;;;;36.50;23.50;;;;;12.02;100.00;102144.84;5048564;28;45248;-75
2021/11/24 00:21:41;;;;;;;;;39.50;24.75;;;;;12.01;100.00;102141.31;5047253;28;45488;-76
2021/11/24 00:24:06;;;;;;;;;33.25;29.50;;;;;12.00;100.00;102136.97;5059251;28;45454;-76
2021/11/24 00:26:31;;;;;;;;;27.25;22.00;;;;;11.98;100.00;102134.38;5050581;28;45474;-76
2021/11/24 00:28:57;;;;;;;;;42.25;29.00;;;;;11.88;100.00;102134.94;5059829;28;45545;-76
2021/11/24 00:31:22;;;;;;;;;36.25;24.00;;;;;11.92;100.00;102140.00;5055594;28;45387;-76
2021/11/24 00:33:48;;;;;;;;;38.50;27.50;;;;;11.90;100.00;102141.88;5049787;28;46230;-76
2021/11/24 00:36:13;;;;;;;;;31.50;21.50;;;;;12.26;100.00;102147.06;5063476;28;45335;-76
2021/11/24 00:38:38;;;;;;;;;38.50;24.50;;;;;11.96;100.00;102141.53;5059490;28;45394;-76
2021/11/24 00:41:04;;;;;;;;;33.25;28.00;;;;;11.90;100.00;102133.06;5059712;28;45255;-76
2021/11/24 00:43:29;;;;;;;;;29.75;23.75;;;;;11.87;100.00;102131.41;5050465;28;46325;-76
2021/11/24 00:45:55;;;;;;;;;25.00;22.75;;;;;11.86;100.00;102137.66;5057896;28;45365;-76
2021/11/24 00:48:21;;;;;;;;;33.50;27.00;;;;;11.87;100.00;102135.84;5044287;28;45406;-76
2021/11/24 00:50:47;;;;;;;;;38.50;23.75;;;;;11.83;100.00;102123.72;5043585;28;45439;-76
2021/11/24 00:53:12;;;;;;;;;29.25;26.00;;;;;11.77;100.00;102127.53;5042358;28;46095;-76
2021/11/24 00:55:38;;;;;;;;;30.50;25.25;;;;;11.72;100.00;102137.47;5057432;28;45405;-76
2021/11/24 00:58:04;;;;;;;;;31.00;25.75;;;;;11.67;100.00;102125.38;5057772;28;45447;-76
2021/11/24 01:00:30;;;;;;;;;35.00;27.25;;;;;11.65;100.00;102121.97;5055623;28;45168;-76
2021/11/24 01:02:55;;;;;;;;;31.75;26.25;;;;;11.65;100.00;102121.97;5058906;28;45482;-76
2021/11/24 01:05:21;;;;;;;;;38.25;24.50;;;;;11.65;100.00;102106.09;5058010;28;45432;-76
2021/11/24 01:07:46;;;;;;;;;34.25;22.50;;;;;11.69;100.00;102112.94;5057703;28;45725;-76
2021/11/24 01:10:14;;;;;;;;;36.50;25.25;;;;;11.65;100.00;102116.69;5053985;28;45528;-76
2021/11/24 01:12:41;;;;;;;;;34.25;26.75;;;;;11.64;100.00;102110.53;5057933;28;46667;-76
2021/11/24 01:15:08;;;;;;;;;36.00;24.00;;;;;11.63;100.00;102100.88;5044349;28;45852;-76
2021/11/24 01:17:33;;;;;;;;;30.50;23.00;;;;;11.66;100.00;102111.28;5047435;28;45470;-76
2021/11/24 01:19:59;;;;;;;;;33.50;26.75;;;;;11.87;100.00;102102.31;5045679;28;45230;-76
2021/11/24 01:22:24;;;;;;;;;34.25;31.00;;;;;11.69;100.00;102100.56;5058871;28;45402;-76
2021/11/24 01:24:50;;;;;;;;;28.50;23.50;;;;;11.61;100.00;102100.94;5056336;28;45314;-76
2021/11/24 01:27:15;;;;;;;;;38.50;25.50;;;;;11.61;100.00;102105.38;5052144;28;45293;-76
2021/11/24 01:29:40;;;;;;;;;30.50;23.75;;;;;11.60;100.00;102098.38;5049030;28;45499;-76
2021/11/24 01:32:06;;;;;;;;;36.75;28.25;;;;;11.56;100.00;102102.13;5056958;28;46444;-76
2021/11/24 01:34:32;;;;;;;;;33.50;21.00;;;;;11.54;100.00;102093.41;5056927;28;45537;-76
2021/11/24 01:36:57;;;;;;;;;26.25;21.00;;;;;11.52;100.00;102089.97;5058099;28;45173;-75
2021/11/24 01:39:22;;;;;;;;;26.25;22.25;;;;;11.56;100.00;102092.38;5058273;28;45212;-76
2021/11/24 01:41:47;;;;;;;;;35.00;24.50;;;;;11.55;100.00;102095.13;5050199;28;45425;-76
2021/11/24 01:44:21;;;;;;;;;36.25;26.25;;;;;11.56;100.00;102080.97;5058981;28;45265;-76
2021/11/24 01:47:02;;;;;;;;;37.75;22.00;;;;;11.56;100.00;102086.25;5045945;28;45367;-76
2021/11/24 01:49:29;;;;;;;;;36.50;25.00;;;;;11.56;100.00;102083.63;5061611;28;45451;-76
2021/11/24 01:51:58;;;;;;;;;34.00;26.50;;;;;11.55;100.00;102079.25;5061161;28;45286;-76
2021/11/24 01:54:25;;;;;;;;;29.50;27.25;;;;;11.53;100.00;102078.47;5057827;28;45785;-76
2021/11/24 01:56:51;;;;;;;;;25.50;21.75;;;;;11.52;100.00;102079.41;5057330;28;45453;-76
2021/11/24 01:59:17;;;;;;;;;34.25;22.50;;;;;11.55;100.00;102076.59;5056559;28;45323;-76
2021/11/24 02:01:45;;;;;;;;;31.00;26.00;;;;;11.46;100.00;102074.41;5051864;28;45441;-76
2021/11/24 02:04:12;;;;;;;;;42.25;25.75;;;;;11.45;100.00;102073.56;5044268;28;45471;-76
2021/11/24 02:06:38;;;;;;;;;41.50;28.50;;;;;11.44;100.00;102068.34;5053893;28;45414;-76
2021/11/24 02:09:05;;;;;;;;;28.75;20.25;;;;;11.43;100.00;102059.56;5052091;28;45323;-75
2021/11/24 02:11:36;;;;;;;;;36.50;25.50;;;;;11.38;100.00;102060.72;5064700;28;45494;-76
2021/11/24 02:14:01;;;;;;;;;28.75;19.75;;;;;11.29;100.00;102063.81;5068457;28;45218;-76
2021/11/24 02:16:27;;;;;;;;;29.00;19.75;;;;;11.23;100.00;102068.47;5060436;28;45315;-76
2021/11/24 02:18:52;;;;;;;;;34.00;26.25;;;;;11.16;100.00;102061.78;5052291;28;45402;-76
2021/11/24 02:21:19;;;;;;;;;28.25;23.25;;;;;11.14;100.00;102057.47;5051794;28;46307;-76
2021/11/24 02:23:45;;;;;;;;;31.00;26.75;;;;;11.14;100.00;102060.97;5058422;28;45768;-76
2021/11/24 02:26:10;;;;;;;;;30.75;24.75;;;;;11.16;100.00;102059.13;5060982;28;45367;-75
2021/11/24 02:28:35;;;;;;;;;31.50;21.75;;;;;11.20;100.00;102060.69;5060619;28;45400;-76
2021/11/24 02:31:01;;;;;;;;;39.00;23.00;;;;;11.16;100.00;102053.84;5062989;28;45607;-76
2021/11/24 02:33:26;;;;;;;;;24.00;16.50;;;;;11.14;100.00;102046.91;5055758;28;45326;-76
2021/11/24 02:35:52;;;;;;;;;25.50;20.75;;;;;11.12;100.00;102049.63;5060150;28;45570;-76
2021/11/24 02:38:18;;;;;;;;;30.50;23.75;;;;;11.10;100.00;102048.88;5061636;28;45342;-76
2021/11/24 02:40:44;;;;;;;;;33.25;24.00;;;;;11.34;100.00;102049.44;5060897;28;45629;-76
2021/11/24 02:43:09;;;;;;;;;37.50;20.25;;;;;11.18;100.00;102040.56;5059693;28;45368;-75
2021/11/24 02:45:36;;;;;;;;;27.00;23.50;;;;;11.18;100.00;102033.47;5059464;28;45383;-76
2021/11/24 02:48:02;;;;;;;;;29.00;23.25;;;;;11.13;100.00;102032.84;5065225;28;45362;-76
2021/11/24 02:50:28;;;;;;;;;27.25;20.75;;;;;11.44;100.00;102037.47;5066882;28;45728;-75
2021/11/24 02:52:53;;;;;;;;;40.00;23.00;;;;;11.58;100.00;102032.31;5048013;28;45405;-76
2021/11/24 02:55:19;;;;;;;;;37.00;22.25;;;;;11.14;100.00;102026.63;5060506;28;45358;-76
2021/11/24 02:57:48;;;;;;;;;36.25;24.75;;;;;11.11;100.00;102034.69;5072185;28;45389;-75
2021/11/24 03:00:24;;;;;;;;;25.50;20.50;;;;;11.13;100.00;102024.03;5055099;28;47086;-76
2021/11/24 03:02:49;;;;;;;;;42.00;24.25;;;;;11.06;100.00;102018.22;5059578;28;45346;-76
2021/11/24 03:05:17;;;;;;;;;29.00;21.00;;;;;11.10;100.00;102017.16;5062317;28;45360;-76
2021/11/24 03:07:43;;;;;;;;;32.25;19.50;;;;;11.06;100.00;102017.34;5064514;28;45606;-76
2021/11/24 03:10:09;;;;;;;;;30.25;21.75;;;;;11.09;100.00;102019.84;5064309;28;45479;-75
2021/11/24 03:12:35;;;;;;;;;30.25;22.00;;;;;11.12;100.00;102007.31;5075312;28;45425;-76
2021/11/24 03:15:01;;;;;;;;;33.00;24.75;;;;;11.09;100.00;102004.00;5075318;28;45420;-76
2021/11/24 03:17:26;;;;;;;;;31.75;23.25;;;;;11.02;100.00;102002.56;5054968;28;45562;-75
2021/11/24 03:19:52;;;;;;;;;37.75;21.25;;;;;10.99;100.00;101995.66;5043487;28;45951;-75
2021/11/24 03:22:22;;;;;;;;;33.25;22.50;;;;;10.94;100.00;101987.09;5052186;28;45432;-75
2021/11/24 03:24:54;;;;;;;;;21.50;13.00;;;;;10.96;100.00;101977.31;5047074;27;45331;-75
2021/11/24 03:27:22;;;;;;;;;31.00;21.25;;;;;10.95;100.00;101980.88;5060787;28;45335;-75
2021/11/24 03:29:47;;;;;;;;;30.00;22.00;;;;;10.94;100.00;101980.94;5051780;28;47311;-75
2021/11/24 03:32:12;;;;;;;;;21.75;21.50;;;;;10.91;100.00;101981.97;5045456;28;45792;-75
2021/11/24 03:34:37;;;;;;;;;26.25;19.25;;;;;10.95;100.00;101982.66;5065221;28;46822;-75
2021/11/24 03:37:03;;;;;;;;;42.50;23.50;;;;;10.97;100.00;101984.31;5060296;28;45470;-74
2021/11/24 03:39:28;;;;;;;;;31.00;25.00;;;;;11.01;100.00;101985.03;5059078;28;48298;-75
2021/11/24 03:41:53;;;;;;;;;32.75;25.00;;;;;10.93;100.00;101977.44;5051350;28;45463;-74
2021/11/24 03:44:19;;;;;;;;;29.25;23.25;;;;;11.01;100.00;101977.09;5061342;28;45466;-75
2021/11/24 03:46:44;;;;;;;;;38.75;21.75;;;;;10.99;100.00;101977.16;5062609;28;45389;-75
2021/11/24 03:49:10;;;;;;;;;32.50;22.25;;;;;10.95;100.00;101969.44;5060255;28;45528;-75
2021/11/24 03:51:35;;;;;;;;;28.25;20.75;;;;;11.04;100.00;101975.13;5052167;28;45444;-74
2021/11/24 03:54:00;;;;;;;;;38.25;28.00;;;;;11.11;100.00;101970.38;5054500;28;45525;-74
2021/11/24 03:56:26;;;;;;;;;31.00;22.75;;;;;11.24;100.00;101961.78;5060322;28;45381;-74
2021/11/24 03:58:51;;;;;;;;;41.25;23.00;;;;;11.28;100.00;101954.56;5039749;28;46282;-75
2021/11/24 04:01:16;;;;;;;;;29.25;24.50;;;;;11.17;100.00;101957.72;5050575;28;45422;-75
2021/11/24 04:03:42;;;;;;;;;28.75;21.75;;;;;11.46;100.00;101944.81;5045589;28;45260;-75
2021/11/24 04:06:07;;;;;;;;;35.00;24.50;;;;;11.38;100.00;101958.41;5058708;28;45627;-75
2021/11/24 04:08:33;;;;;;;;;29.75;25.00;;;;;11.46;100.00;101948.31;5053494;28;45241;-75
2021/11/24 04:10:58;;;;;;;;;30.25;20.00;;;;;11.45;100.00;101943.94;5049922;28;45264;-75
2021/11/24 04:13:23;;;;;;;;;33.00;22.75;;;;;11.67;100.00;101942.81;5055839;28;45231;-75
2021/11/24 04:15:49;;;;;;;;;34.50;22.75;;;;;11.73;100.00;101948.66;5071620;28;45584;-75
2021/11/24 04:18:14;;;;;;;;;39.00;22.50;;;;;11.67;100.00;101941.03;5040824;28;45799;-75
2021/11/24 04:20:40;;;;;;;;;34.75;23.75;;;;;11.57;100.00;101934.50;5046965;28;45451;-74
2021/11/24 04:23:05;;;;;;;;;36.50;21.50;;;;;11.52;100.00;101934.75;5058549;28;45301;-75
2021/11/24 04:25:31;;;;;;;;;25.50;23.25;;;;;11.49;100.00;101939.34;5069304;28;45298;-74
2021/11/24 04:27:56;;;;;;;;;35.75;22.75;;;;;11.58;100.00;101930.91;5046882;28;45236;-75
2021/11/24 04:30:22;;;;;;;;;38.50;25.50;;;;;11.68;100.00;101929.50;5057212;28;45177;-75
2021/11/24 04:32:48;;;;;;;;;31.50;22.50;;;;;11.54;100.00;101924.97;5043739;28;45466;-74
2021/11/24 04:35:13;;;;;;;;;28.25;17.75;;;;;11.38;100.00;101918.72;5064423;28;46154;-75
2021/11/24 04:37:38;;;;;;;;;34.25;23.00;;;;;11.41;100.00;101918.59;5050352;28;46332;-75
2021/11/24 04:40:05;;;;;;;;;30.25;22.00;;;;;11.41;100.00;101908.00;5049037;28;45372;-75
2021/11/24 04:42:31;;;;;;;;;37.50;22.00;;;;;11.34;100.00;101917.19;5043846;28;45237;-74
2021/11/24 04:44:57;;;;;;;;;30.50;22.25;;;;;11.25;100.00;101907.97;5060521;28;45616;-75
2021/11/24 04:47:22;;;;;;;;;36.50;22.75;;;;;11.28;100.00;101906.94;5065849;28;45460;-75
2021/11/24 04:49:48;;;;;;;;;35.00;23.00;;;;;11.33;100.00;101912.84;5059368;28;45358;-75
2021/11/24 04:52:13;;;;;;;;;37.75;23.50;;;;;11.35;100.00;101918.06;5058344;28;45343;-75
2021/11/24 04:54:39;;;;;;;;;38.50;26.00;;;;;11.30;100.00;101915.63;5059432;28;45239;-75
2021/11/24 04:57:04;;;;;;;;;30.25;22.25;;;;;11.35;100.00;101912.78;5064208;28;46557;-74
2021/11/24 04:59:29;;;;;;;;;39.50;24.00;;;;;11.33;100.00;101907.56;5046789;28;46787;-74
2021/11/24 05:01:55;;;;;;;;;36.75;26.25;;;;;11.30;100.00;101913.00;5054794;28;45219;-75
2021/11/24 05:04:21;;;;;;;;;34.75;26.50;;;;;11.24;100.00;101923.91;5057006;28;45222;-75
2021/11/24 05:06:47;;;;;;;;;29.00;21.75;;;;;11.17;100.00;101912.78;5074944;28;46236;-75
2021/11/24 05:09:13;;;;;;;;;33.00;19.75;;;;;11.27;100.00;101907.88;5053515;28;45685;-75
2021/11/24 05:11:39;;;;;;;;;39.00;22.50;;;;;11.24;100.00;101906.25;5066755;28;45621;-75
2021/11/24 05:14:06;;;;;;;;;27.75;22.00;;;;;11.27;100.00;101901.75;5055388;28;45492;-75
2021/11/24 05:16:33;;;;;;;;;32.00;22.50;;;;;11.31;100.00;101913.84;5052977;28;45475;-75
2021/11/24 05:18:59;;;;;;;;;26.75;19.00;;;;;11.41;100.00;101912.44;5049765;28;45794;-75
2021/11/24 05:21:38;;;;;;;;;26.25;17.50;;;;;11.49;100.00;101905.81;5057801;28;45383;-75
2021/11/24 05:24:04;;;;;;;;;30.50;22.50;;;;;11.28;100.00;101911.38;5067600;27;45609;-75
2021/11/24 05:26:31;;;;;;;;;22.00;14.00;;;;;11.16;100.00;101907.56;5062204;28;46055;-75
2021/11/24 05:28:57;;;;;;;;;36.75;24.25;;;;;11.05;100.00;101913.41;5058747;28;45824;-75
2021/11/24 05:31:23;;;;;;;;;22.00;20.50;;;;;11.12;100.00;101912.16;5053965;28;45406;-75
2021/11/24 05:33:49;;;;;;;;;29.25;20.50;;;;;11.16;100.00;101904.94;5062470;28;45314;-74
2021/11/24 05:36:15;;;;;;;;;27.25;23.50;;;;;11.38;100.00;101896.75;5070862;28;45219;-74
2021/11/24 05:38:41;;;;;;;;;27.50;18.50;;;;;11.37;100.00;101893.25;5078907;28;45869;-75
2021/11/24 05:41:07;;;;;;;;;37.50;26.50;;;;;11.40;100.00;101905.44;5060999;28;45339;-76
2021/11/24 05:43:34;;;;;;;;;40.00;25.50;;;;;11.37;100.00;101889.75;5061740;28;45247;-76
2021/11/24 05:46:11;;;;;;;;;26.00;22.75;;;;;11.34;100.00;101887.25;5059422;28;46386;-76
2021/11/24 05:48:38;;;;;;;;;32.75;23.00;;;;;11.37;100.00;101890.59;5054933;28;45906;-77
2021/11/24 05:51:04;;;;;;;;;32.00;21.00;;;;;11.34;100.00;101884.63;5060077;28;45337;-75
2021/11/24 05:53:29;;;;;;;;;31.50;21.00;;;;;11.11;100.00;101875.22;5062790;28;45562;-75
2021/11/24 05:55:54;;;;;;;;;42.50;24.25;;;;;11.22;100.00;101870.22;5059654;28;45272;-76
2021/11/24 05:58:21;;;;;;;;;35.75;22.00;;;;;11.22;100.00;101875.53;5060791;28;45331;-76
2021/11/24 06:00:47;;;;;;;;;30.75;22.00;;;;;11.16;100.00;101873.22;5057133;28;45514;-77
2021/11/24 06:03:12;;;;;;;;;31.25;21.25;;;;;11.13;100.00;101879.50;5056500;28;45314;-78
2021/11/24 06:05:38;;;;;;;;;32.00;20.00;;;;;11.14;100.00;101878.56;5056257;28;45405;-78
2021/11/24 06:08:04;;;;;;;;;27.75;22.75;;;;;11.10;100.00;101879.69;5057969;28;45589;-78
2021/11/24 06:10:30;;;;;;;;;25.75;21.75;;;;;11.11;100.00;101877.88;5062917;28;45455;-78
2021/11/24 06:12:55;;;;;;;;;31.75;19.00;;;;;11.08;100.00;101873.59;5062168;28;46520;-78
2021/11/24 06:15:21;;;;;;;;;29.50;20.75;;;;;11.08;100.00;101873.59;5059083;28;45354;-76
2021/11/24 06:17:47;;;;;;;;;33.25;22.75;;;;;11.05;100.00;101859.69;5059755;28;45484;-75
2021/11/24 06:20:15;;;;;;;;;26.25;21.50;;;;;11.04;100.00;101868.53;5060101;28;45584;-75
2021/11/24 06:22:42;;;;;;;;;37.00;26.25;;;;;10.98;100.00;101872.38;5059816;28;45446;-75
2021/11/24 06:25:08;;;;;;;;;35.00;21.25;;;;;11.05;100.00;101864.97;5058139;28;45674;-75
2021/11/24 06:27:34;;;;;;;;;33.00;24.00;;;;;11.00;100.00;101865.22;5067655;28;45939;-75
2021/11/24 06:29:59;;;;;;;;;35.25;21.50;;;;;11.01;100.00;101860.78;5066094;28;45882;-74
2021/11/24 06:32:25;;;;;;;;;31.25;20.00;;;;;10.97;100.00;101869.81;5051980;28;45430;-77
2021/11/24 06:34:50;;;;;;;;;31.50;21.00;;;;;10.97;100.00;101875.09;5062147;28;46276;-77
2021/11/24 06:37:16;;;;;;;;;28.00;18.50;;;;;11.00;100.00;101865.22;5067379;28;45861;-75
2021/11/24 06:39:42;;;;;;;;;26.50;22.25;;;;;11.00;100.00;101873.16;5061956;28;46675;-75
2021/11/24 06:42:08;;;;;;;;;27.50;21.75;;;;;11.02;100.00;101865.97;5058710;28;45532;-76
2021/11/24 06:44:33;;;;;;;;;34.50;19.25;;;;;10.99;100.00;101879.38;5069565;28;46352;-75
2021/11/24 06:46:59;;;;;;;;;26.00;18.50;;;;;10.95;100.00;101859.31;5068746;28;45453;-75
2021/11/24 06:49:25;;;;;;;;;30.25;19.00;;;;;10.85;100.00;101866.84;5055250;28;45479;-75
2021/11/24 06:51:50;;;;;;;;;34.25;20.75;;;;;10.87;100.00;101864.97;5057579;28;45658;-75
2021/11/24 06:54:17;;;;;;;;;28.00;19.25;;;;;10.86;100.00;101860.63;5047224;28;48399;-75
2021/11/24 06:56:47;;;;;;;;;28.50;20.25;;;;;10.89;100.00;101851.69;5054032;28;45494;-75
2021/11/24 06:59:13;;;;;;;;;31.25;17.25;;;;;10.81;100.00;101856.53;5054545;28;45498;-75
2021/11/24 07:01:38;;;;;;;;;25.50;18.75;;;;;10.84;100.00;101849.28;5059941;28;46075;-76
2021/11/24 07:04:04;;;;;;;;;27.00;20.00;;;;;10.81;100.00;101848.59;5058293;28;45527;-77
2021/11/24 07:06:30;;;;;;;;;14.00;14.00;;;;;10.81;100.00;101849.44;5053125;28;45836;-76
2021/11/24 07:08:55;;;;;;;;;25.50;13.25;;;;;10.78;100.00;101848.75;5051453;28;45533;-77
2021/11/24 07:11:23;;;;;;;;;26.25;17.25;;;;;10.74;100.00;101853.31;5048230;28;45490;-75
2021/11/24 07:13:49;;;;;;;;;32.25;19.25;;;;;10.72;100.00;101851.69;5068504;28;45560;-76
2021/11/24 07:16:14;;;;;;;;;20.75;18.25;;;;;10.69;100.00;101855.34;5079097;28;45456;-77
2021/11/24 07:18:39;;;;;;;;;20.25;17.25;;;;;10.66;100.00;101855.50;5059005;28;45324;-76
2021/11/24 07:21:04;;;;;;;;;24.50;19.00;;;;;10.61;100.00;101846.94;5058548;28;45297;-76
2021/11/24 07:23:30;;;;;;;;;27.00;17.50;;;;;10.59;100.00;101845.31;5055175;28;45282;-76
2021/11/24 07:25:55;;;;;;;;;28.00;16.50;;;;;10.59;100.00;101846.16;5060883;28;45314;-77
2021/11/24 07:28:20;;;;;;;;;22.00;16.50;;;;;10.64;100.00;101848.59;5079554;28;45432;-75
2021/11/24 07:30:46;;;;;;;;;24.25;17.25;;;;;10.65;100.00;101850.31;5058632;28;46106;-75
2021/11/24 07:33:11;;;;;;;;;24.00;19.75;;;;;10.61;100.00;101838.16;5057872;28;48407;-75
2021/11/24 07:35:37;;;;;;;;;27.50;22.00;;;;;10.61;100.00;101838.16;5053688;28;45419;-75
2021/11/24 07:38:02;;;;;;;;;30.25;19.25;;;;;10.66;100.00;101847.56;5054301;28;45206;-76
2021/11/24 07:40:28;;;;;;;;;26.25;16.25;;;;;10.72;100.00;101843.78;5056438;28;45718;-76
2021/11/24 07:42:54;;;;;;;;;22.50;18.75;;;;;10.72;100.00;101836.72;5057763;28;46078;-76
2021/11/24 07:45:19;;;;;;;;;18.00;16.00;;;;;10.76;100.00;101825.03;5053226;28;45340;-76
2021/11/24 07:47:45;;;;;;;;;25.75;20.25;;;;;10.87;100.00;101829.78;5057311;28;46390;-75
2021/11/24 07:50:10;;;;;;;;;26.75;20.75;;;;;10.90;100.00;101819.06;5058134;28;47832;-75
2021/11/24 07:52:36;;;;;;;;;31.25;23.75;;;;;11.00;100.00;101828.22;5056578;28;46664;-76
2021/11/24 07:55:02;;;;;;;;;29.00;19.25;;;;;11.08;100.00;101828.69;5057218;28;45426;-77
2021/11/24 07:57:28;;;;;;;;;26.50;19.75;;;;;11.08;100.00;101835.75;5056633;28;45249;-77
2021/11/24 07:59:54;;;;;;;;;22.00;18.50;;;;;11.11;100.00;101828.50;5055426;28;45449;-76
2021/11/24 08:02:20;;;;;;;;;35.00;21.50;;;;;11.16;100.00;101837.06;5057168;28;46318;-76
2021/11/24 08:04:45;;;;;;;;;23.50;18.50;;;;;11.18;100.00;101834.34;5056520;28;45563;-76
2021/11/24 08:07:10;;;;;;;;;24.25;17.75;;;;;11.25;100.00;101839.22;5050219;28;45421;-76
2021/11/24 08:09:36;;;;;;;;;23.25;19.00;;;;;11.24;100.00;101832.22;5055042;28;45275;-75
2021/11/24 08:12:02;;;;;;;;;28.50;22.00;;;;;11.36;100.00;101837.78;5064002;28;47096;-76
2021/11/24 08:14:28;;;;;;;;;25.00;18.75;;;;;11.28;100.00;101835.56;5070033;27;45375;-76
2021/11/24 08:16:54;;;;;;;;;24.25;17.75;;;;;11.36;100.00;101833.34;5057504;27;45446;-76
2021/11/24 08:19:21;;;;;;;;;36.25;22.25;;;;;11.35;100.00;101822.84;5057791;28;45441;-75
2021/11/24 08:21:46;;;;;;;;;24.50;22.00;;;;;11.35;100.00;101825.50;5047528;28;45474;-76
2021/11/24 08:24:12;;;;;;;;;19.25;17.25;;;;;11.45;100.00;101824.94;5080368;28;45254;-76
2021/11/24 08:26:40;;;;;;;;;25.75;20.50;;;;;11.45;100.00;101829.38;5080456;28;45509;-76
2021/11/24 08:29:05;;;;;;;;;28.50;22.50;;;;;11.44;100.00;101827.66;5079977;28;45437;-76
2021/11/24 08:31:31;;;;;;;;;28.25;22.00;;;;;11.48;100.00;101826.53;5080033;28;46024;-76
2021/11/24 08:33:56;;;;;;;;;34.00;27.75;;;;;11.40;100.00;101819.03;5078860;28;45492;-76
2021/11/24 08:36:22;;;;;;;;;27.75;22.50;;;;;11.47;100.00;101828.31;5079978;28;45433;-76
2021/11/24 08:38:47;;;;;;;;;29.25;21.25;;;;;11.56;100.00;101813.78;5080172;27;45240;-76
2021/11/24 08:41:15;;;;;;;;;34.00;26.00;;;;;11.55;100.00;101818.22;5079732;27;45350;-76
2021/11/24 08:43:41;;;;;;;;;30.75;21.00;;;;;11.43;100.00;101804.78;5078634;28;45313;-76
2021/11/24 08:46:07;;;;;;;;;25.50;21.25;;;;;11.53;100.00;101820.06;5080019;28;45510;-76
2021/11/24 08:48:32;;;;;;;;;29.25;22.00;;;;;11.45;100.00;101816.13;5080044;27;45457;-76
2021/11/24 08:50:58;;;;;;;;;29.50;18.25;;;;;11.53;100.00;101816.56;5080224;27;45815;-76
2021/11/24 08:53:25;;;;;;;;;20.75;18.00;;;;;11.44;100.00;101811.78;5082464;27;45175;-76
2021/11/24 08:55:51;;;;;;;;;27.50;18.75;;;;;11.43;100.00;101818.00;5078717;28;45420;-76
2021/11/24 08:58:17;;;;;;;;;24.25;18.00;;;;;11.39;100.00;101819.09;5063032;28;45433;-76
2021/11/24 09:00:43;;;;;;;;;28.00;21.75;;;;;11.45;100.00;101803.78;5062867;28;45433;-76
2021/11/24 09:03:10;;;;;;;;;33.00;19.75;;;;;11.61;100.00;101796.69;5063056;28;45257;-76
2021/11/24 09:05:35;;;;;;;;;32.25;18.25;;;;;11.65;100.00;101800.03;5062905;28;45241;-76
2021/11/24 09:08:01;;;;;;;;;25.75;16.00;;;;;11.68;100.00;101780.47;5062659;28;45387;-76
2021/11/24 09:10:27;;;;;;;;;32.50;17.50;;;;;11.65;100.00;101780.66;5061138;28;46161;-75
2021/11/24 09:12:54;;;;;;;;;33.50;18.00;;;;;11.70;100.00;101778.59;5062645;28;45227;-75
2021/11/24 09:15:20;;;;;;;;;30.50;18.75;;;;;11.69;100.00;101784.84;5075747;28;45521;-76
2021/11/24 09:17:45;;;;;;;;;23.50;19.50;;;;;11.76;100.00;101781.78;5083021;28;45515;-76
2021/11/24 09:20:11;;;;;;;;;24.50;20.25;;;;;11.92;100.00;101777.38;5083092;28;45454;-76
2021/11/24 09:22:40;;;;;;;;;18.75;16.50;;;;;11.93;100.00;101776.41;5070414;27;45710;-76
2021/11/24 09:25:08;;;;;;;;;24.75;19.75;;;;;11.75;100.00;101774.78;5055834;28;45245;-76
2021/11/24 09:27:46;;;;;;;;;27.50;21.25;;;;;11.81;100.00;101777.09;5062749;28;45453;-76
2021/11/24 09:30:14;;;;;;;;;27.75;22.75;;;;;11.92;100.00;101771.22;5062241;28;46219;-76
2021/11/24 09:32:41;;;;;;;;;37.75;23.00;;;;;12.01;100.00;101767.19;5062768;28;45224;-76
2021/11/24 09:35:08;;;;;;;;;32.25;23.50;;;;;12.11;100.00;101771.03;5062814;28;45185;-76
2021/11/24 09:37:33;;;;;;;;;18.00;12.75;;;;;12.07;100.00;101777.41;5062879;28;45597;-76
2021/11/24 09:40:00;;;;;;;;;32.50;23.00;;;;;12.11;100.00;101773.66;5062435;28;45627;-76
2021/11/24 09:42:29;;;;;;;;;30.75;21.50;;;;;12.23;100.00;101770.28;5062651;28;45786;-75
2021/11/24 09:44:57;;;;;;;;;24.00;19.00;;;;;12.35;100.00;101764.28;5062433;28;45438;-76
2021/11/24 09:47:25;;;;;;;;;29.25;23.75;;;;;12.06;100.00;101760.69;5062384;28;45507;-76
2021/11/24 09:49:56;;;;;;;;;33.00;20.50;;;;;12.35;100.00;101754.56;5061133;28;45470;-76
2021/11/24 09:52:23;;;;;;;;;27.25;19.00;;;;;12.09;100.00;101762.31;5053772;28;45652;-77
2021/11/24 09:54:49;;;;;;;;;28.25;22.25;;;;;12.25;100.00;101763.13;5061909;28;45555;-76
2021/11/24 09:57:24;;;;;;;;;30.00;23.00;;;;;12.35;100.00;101759.00;5052897;28;45378;-76
2021/11/24 09:59:50;;;;;;;;;32.00;23.00;;;;;12.43;100.00;101763.84;5063057;28;45887;-76
2021/11/24 10:02:16;;;;;;;;;26.50;20.00;;;;;12.60;100.00;101758.38;5062108;28;45429;-76
2021/11/24 10:04:43;;;;;;;;;24.50;20.50;;;;;12.65;100.00;101757.19;5060931;28;45512;-76
2021/11/24 10:07:11;;;;;;;;;31.50;23.75;;;;;12.73;100.00;101756.72;5065271;28;45465;-76
2021/11/24 10:09:36;;;;;;;;;21.50;20.00;;;;;12.82;100.00;101758.81;5066716;28;46568;-76
2021/11/24 10:12:01;;;;;;;;;36.25;25.75;;;;;12.76;100.00;101753.84;5079107;28;45242;-76
2021/11/24 10:14:27;;;;;;;;;28.25;18.75;;;;;12.81;100.00;101751.81;5063182;28;45314;-76
2021/11/24 10:17:06;;;;;;;;;21.50;18.50;;;;;12.98;100.00;101753.41;5060665;28;45439;-76
2021/11/24 10:19:32;;;;;;;;;32.00;25.25;;;;;13.01;100.00;101750.59;5062006;28;45504;-77
2021/11/24 10:22:01;;;;;;;;;29.25;24.00;;;;;13.07;100.00;101742.25;5060787;28;45351;-77
2021/11/24 10:24:36;;;;;;;;;33.00;25.00;;;;;13.27;100.00;101733.94;5049083;28;45228;-76
2021/11/24 10:27:04;;;;;;;;;25.75;22.00;;;;;13.54;100.00;101719.84;5061868;28;45227;-77
2021/11/24 10:29:30;;;;;;;;;28.75;22.75;;;;;13.70;100.00;101725.88;5061684;28;45658;-76
2021/11/24 10:31:58;;;;;;;;;26.00;17.75;;;;;13.71;100.00;101714.31;5062088;28;45421;-77
2021/11/24 10:34:30;;;;;;;;;30.50;26.00;;;;;13.63;100.00;101725.44;5062707;28;45299;-76
2021/11/24 10:37:05;;;;;;;;;33.50;22.50;;;;;13.51;100.00;101723.56;5061748;28;45386;-76
2021/11/24 10:39:35;;;;;;;;;29.75;20.25;;;;;13.78;100.00;101719.09;5060296;28;47364;-76
2021/11/24 10:42:09;;;;;;;;;28.00;22.50;;;;;13.92;100.00;101710.25;5061360;28;46003;-76
2021/11/24 10:44:35;;;;;;;;;27.50;21.75;;;;;13.79;100.00;101709.34;5061517;28;45244;-76
2021/11/24 10:47:04;;;;;;;;;30.50;22.75;;;;;13.97;100.00;101697.50;5061599;28;45286;-77
2021/11/24 10:49:44;;;;;;;;;27.50;23.50;;;;;14.07;100.00;101698.59;5061316;28;45539;-76
2021/11/24 10:52:14;;;;;;;;;26.25;22.50;;;;;14.30;100.00;101697.03;5061743;28;45200;-76
2021/11/24 10:54:41;;;;;;;;;26.25;19.75;;;;;14.36;100.00;101699.31;5061525;28;45414;-76
2021/11/24 10:57:10;;;;;;;;;27.25;23.25;;;;;14.26;100.00;101679.63;5070836;28;45300;-76
2021/11/24 10:59:39;;;;;;;;;34.50;23.25;;;;;14.31;100.00;101673.97;5081241;28;45419;-76